Lairg, United Kingdom
Current Conditions -  °F | °C
As of 9:50 AM on Wednesday 26 Nov 2014 (Local Time) from EGPE Reporting Station
Moderate Fog Moderate Fog  
Wind Chill: 28°   Ceiling: Unl
Heat Index: 28°   Visibility: 0.25mi
Dew Point: 28°   Wind: 0mph
Humidity: 100%   Direction: NA
Pressure: 30"   Gusts: NA
Location:  58.08°N, 4.42°W
Report Text: EGPE 260950Z 00000KT 0400 R23/0350 FZFG FEW000 M02/M02 Q1016
Loading
Personal Weather Stations






























Interactive Weather Map New forecast layout! Learn more

10-Day Weather Forecast

Advertisements
Track Severe Weather on mobile